createdAt,value
2022-08-21T00:00:48.924Z,39.6
2022-08-21T00:11:59.030Z,39.7
2022-08-21T00:17:30.240Z,39.7
2022-08-21T00:28:33.116Z,39.8
2022-08-21T00:34:20.600Z,39.8
2022-08-21T00:39:57.669Z,39.8
2022-08-21T00:46:01.368Z,39.8
2022-08-21T00:51:43.307Z,39.8
2022-08-21T00:57:33.693Z,39.8
2022-08-21T01:03:15.479Z,39.9
2022-08-21T01:08:53.501Z,39.9
2022-08-21T01:14:37.726Z,39.9
2022-08-21T01:19:57.625Z,39.9
2022-08-21T01:25:42.134Z,39.9
2022-08-21T01:31:24.764Z,39.9
2022-08-21T01:37:03.623Z,39.9
2022-08-21T01:42:41.630Z,39.9
2022-08-21T01:48:26.839Z,40
2022-08-21T01:53:50.874Z,40
2022-08-21T01:59:06.453Z,40
2022-08-21T02:05:01.286Z,40
2022-08-21T02:10:39.177Z,40.1
2022-08-21T02:16:12.408Z,40.1
2022-08-21T02:22:18.919Z,40.1
2022-08-21T02:28:01.583Z,40.1
2022-08-21T02:33:22.595Z,40.1
2022-08-21T02:39:02.602Z,40.1
2022-08-21T02:44:34.444Z,40.1
2022-08-21T02:50:11.488Z,40.1
2022-08-21T02:55:48.045Z,40.1
2022-08-21T03:06:45.651Z,40.1
2022-08-21T03:12:15.794Z,40.1
2022-08-21T03:18:03.037Z,40.1
2022-08-21T03:23:49.321Z,40.1
2022-08-21T03:29:31.763Z,40.2
2022-08-21T03:35:11.372Z,40.1
2022-08-21T03:40:32.633Z,40.2
2022-08-21T03:46:09.309Z,40.1
2022-08-21T03:51:30.677Z,40.2
2022-08-21T04:02:14.883Z,40.2
2022-08-21T04:07:59.579Z,40.2
2022-08-21T04:13:35.761Z,40.2
2022-08-21T04:19:19.646Z,40.2
2022-08-21T04:25:19.768Z,40.2
2022-08-21T04:31:02.375Z,40.2
2022-08-21T04:36:40.906Z,40.2
2022-08-21T04:42:33.631Z,40.2
2022-08-21T04:48:30.386Z,40.2
2022-08-21T04:54:09.594Z,40.2
2022-08-21T05:00:05.688Z,40.2
2022-08-21T05:05:12.787Z,40.2
2022-08-21T05:10:35.736Z,40.2
2022-08-21T05:16:03.635Z,40.1
2022-08-21T05:22:07.520Z,40.2
2022-08-21T05:27:55.622Z,40.1
2022-08-21T05:33:37.837Z,40.1
2022-08-21T05:39:24.472Z,40.1
2022-08-21T05:46:15.184Z,40.1
2022-08-21T05:51:57.596Z,40.1
2022-08-21T05:57:41.967Z,40.1
2022-08-21T06:03:27.482Z,40.1
2022-08-21T06:09:18.482Z,40.1
2022-08-21T06:14:58.702Z,40.1
2022-08-21T06:20:40.534Z,40.1
2022-08-21T06:26:24.039Z,40.1
2022-08-21T06:32:04.381Z,40.1
2022-08-21T06:37:46.505Z,40.1
2022-08-21T06:44:10.840Z,40.1
2022-08-21T06:49:38.115Z,40.1
2022-08-21T06:55:21.015Z,40.1
2022-08-21T07:01:01.114Z,40.1
2022-08-21T07:06:39.873Z,40.1
2022-08-21T07:12:20.674Z,40.1
2022-08-21T07:18:05.457Z,40.2
2022-08-21T07:23:43.825Z,40.2
2022-08-21T07:29:26.008Z,40.7
2022-08-21T07:35:04.391Z,41.3
2022-08-21T07:40:51.500Z,41.4
2022-08-21T07:46:36.330Z,41.4
2022-08-21T07:52:31.221Z,41.3
2022-08-21T07:58:17.123Z,41.3
2022-08-21T08:04:01.752Z,41.3
2022-08-21T08:09:38.475Z,41.3
2022-08-21T08:15:21.213Z,42.1
2022-08-21T08:20:58.589Z,42.9
2022-08-21T08:26:59.000Z,43.6
2022-08-21T08:32:50.176Z,44.4
2022-08-21T08:38:48.184Z,45.1
2022-08-21T08:45:10.460Z,45.9
2022-08-21T08:50:49.445Z,46.6
2022-08-21T08:56:16.835Z,47.3
2022-08-21T09:01:59.435Z,47.6
2022-08-21T09:07:36.429Z,48.1
2022-08-21T09:12:57.385Z,48.6
2022-08-21T09:18:40.340Z,49
2022-08-21T09:24:19.985Z,49.6
2022-08-21T09:29:56.411Z,50.1
2022-08-21T09:35:44.772Z,50.6
2022-08-21T09:41:12.629Z,51
2022-08-21T09:46:48.699Z,51.3
2022-08-21T09:52:38.357Z,51.6
2022-08-21T09:58:23.437Z,51.9
2022-08-21T10:04:08.126Z,52.1
2022-08-21T10:09:54.457Z,52.1
2022-08-21T10:15:35.159Z,52.1
2022-08-21T10:21:12.188Z,52.1
2022-08-21T10:27:35.605Z,51.9
2022-08-21T10:33:32.194Z,52.3
2022-08-21T10:39:58.902Z,52.8
2022-08-21T10:45:25.990Z,53.2
2022-08-21T10:51:04.965Z,53.6
2022-08-21T10:56:53.481Z,54.1
2022-08-21T11:02:36.872Z,54.5
2022-08-21T11:08:09.837Z,54.9
2022-08-21T11:14:31.860Z,55.4
2022-08-21T11:20:04.646Z,55.9
2022-08-21T11:25:53.372Z,56.4
2022-08-21T11:31:18.756Z,56.9
2022-08-21T11:37:03.573Z,57.3
2022-08-21T11:42:42.336Z,57.8
2022-08-21T11:48:25.029Z,58.1
2022-08-21T11:59:40.800Z,58.9
2022-08-21T12:05:25.766Z,59.1
2022-08-21T12:11:11.431Z,59
2022-08-21T12:17:03.825Z,58.9
2022-08-21T12:22:46.212Z,58.9
2022-08-21T12:28:35.969Z,58.8
2022-08-21T12:34:12.713Z,58.7
2022-08-21T12:40:00.984Z,58.6
2022-08-21T12:51:19.712Z,58.5
2022-08-21T12:56:43.870Z,58.4
2022-08-21T13:02:22.297Z,58.4
2022-08-21T13:08:08.431Z,58.3
2022-08-21T13:14:26.820Z,58.2
2022-08-21T13:20:19.855Z,58.1
2022-08-21T13:26:42.045Z,58.1
2022-08-21T13:32:30.294Z,57.9
2022-08-21T13:38:09.533Z,57.9
2022-08-21T13:43:54.239Z,57.8
2022-08-21T13:54:55.187Z,57.6
2022-08-21T14:00:32.383Z,57.6
2022-08-21T14:06:17.041Z,57.6
2022-08-21T14:11:59.484Z,57.4
2022-08-21T14:17:59.310Z,57.3
2022-08-21T14:23:37.006Z,57.3
2022-08-21T14:29:17.651Z,57.2
2022-08-21T14:35:27.726Z,57.1
2022-08-21T14:46:55.204Z,57
2022-08-21T14:52:43.389Z,56.9
2022-08-21T14:58:28.687Z,56.8
2022-08-21T15:04:17.944Z,56.8
2022-08-21T15:10:03.432Z,56.7
2022-08-21T15:16:12.982Z,56.6
2022-08-21T15:21:50.445Z,56.6
2022-08-21T15:27:45.358Z,56.4
2022-08-21T15:33:30.925Z,56.4
2022-08-21T15:39:17.195Z,56.4
2022-08-21T15:45:09.492Z,56.3
2022-08-21T15:50:46.736Z,56.2
2022-08-21T15:56:31.222Z,56.1
2022-08-21T16:02:17.643Z,56.1
2022-08-21T16:08:16.551Z,56
2022-08-21T16:13:56.948Z,55.9
2022-08-21T16:19:18.537Z,55.9
2022-08-21T16:25:14.166Z,55.8
2022-08-21T16:31:06.403Z,55.8
2022-08-21T16:36:50.667Z,55.7
2022-08-21T16:42:30.491Z,55.6
2022-08-21T16:48:16.742Z,55.5
2022-08-21T16:53:57.940Z,55.5
2022-08-21T16:59:38.763Z,55.4
2022-08-21T17:05:18.418Z,55.4
2022-08-21T17:11:02.021Z,55.3
2022-08-21T17:17:01.795Z,55.3
2022-08-21T17:22:41.053Z,55.2
2022-08-21T17:28:17.934Z,55.1
2022-08-21T17:34:03.554Z,55.1
2022-08-21T17:39:43.272Z,55
2022-08-21T17:45:24.799Z,54.9
2022-08-21T17:51:12.384Z,54.8
2022-08-21T17:56:49.061Z,54.8
2022-08-21T18:02:36.426Z,54.7
2022-08-21T18:08:22.409Z,34.3
2022-08-21T18:13:45.611Z,29.4
2022-08-21T18:19:27.973Z,29.9
2022-08-21T18:25:23.913Z,30.4
2022-08-21T18:36:55.729Z,31.5
2022-08-21T18:43:12.756Z,31.9
2022-08-21T18:49:02.179Z,32.4
